Terminal Aerodrome Forecast
Issued by NWS

Home | Current Version | Previous Version | Text Only | Print | Product List | Glossary On
Versions: 1 2 3 4 5 6 7 8 9 10 11 12 13 14 15 16 17 18 19 20 21 22 23
000
FTUS46 KSEW 010900 AAA
TAFSEA
TAF AMD
KSEA 010900Z 0109/0212 01004KT P6SM SKC
     FM011200 02005KT P6SM SKC
     FM011900 33008KT P6SM SKC=

USA.gov is the U.S. government's official web portal to all federal, state and local government web resources and services.